createdAt,value
2023-05-10T00:01:34.415Z,7.15
2023-05-10T00:04:03.095Z,7.07
2023-05-10T00:06:33.669Z,6.98
2023-05-10T00:09:02.300Z,6.84
2023-05-10T00:11:31.000Z,6.76
2023-05-10T00:13:59.627Z,6.72
2023-05-10T00:16:28.635Z,6.66
2023-05-10T00:18:57.384Z,6.57
2023-05-10T00:21:25.852Z,6.48
2023-05-10T00:23:56.226Z,6.41
2023-05-10T00:26:24.599Z,6.35
2023-05-10T00:28:56.709Z,6.24
2023-05-10T00:31:25.678Z,6.21
2023-05-10T00:33:54.315Z,6.15
2023-05-10T00:36:23.107Z,6.08
2023-05-10T00:38:51.614Z,6.04
2023-05-10T00:41:22.237Z,5.99
2023-05-10T00:43:51.285Z,5.97
2023-05-10T00:46:20.934Z,5.94
2023-05-10T00:48:50.346Z,5.93
2023-05-10T00:51:19.068Z,5.91
2023-05-10T00:53:48.555Z,5.83
2023-05-10T00:56:17.767Z,5.81
2023-05-10T00:58:48.529Z,5.78
2023-05-10T01:01:17.588Z,5.74
2023-05-10T01:03:48.071Z,5.72
2023-05-10T01:06:18.493Z,5.70
2023-05-10T01:08:47.702Z,5.65
2023-05-10T01:11:16.922Z,5.62
2023-05-10T01:13:57.568Z,5.57
2023-05-10T01:16:27.272Z,5.54
2023-05-10T01:18:55.952Z,5.52
2023-05-10T01:21:35.367Z,5.45
2023-05-10T01:24:40.636Z,5.41
2023-05-10T01:27:22.395Z,5.39
2023-05-10T01:30:22.631Z,5.37
2023-05-10T01:32:58.291Z,5.29
2023-05-10T01:35:34.824Z,5.26
2023-05-10T01:38:10.355Z,5.20
2023-05-10T01:40:46.666Z,5.17
2023-05-10T01:43:25.266Z,5.10
2023-05-10T01:46:05.738Z,5.06
2023-05-10T01:48:39.394Z,5.00
2023-05-10T01:51:09.252Z,4.93
2023-05-10T01:53:41.334Z,4.84
2023-05-10T01:56:11.969Z,4.80
2023-05-10T01:58:46.747Z,4.75
2023-05-10T02:01:17.518Z,4.72
2023-05-10T02:03:49.471Z,4.72
2023-05-10T02:06:20.871Z,4.67
2023-05-10T02:08:54.319Z,4.63
2023-05-10T02:11:25.553Z,4.61
2023-05-10T02:13:55.738Z,4.59
2023-05-10T02:16:32.067Z,4.57
2023-05-10T02:19:04.501Z,4.55
2023-05-10T02:21:35.070Z,4.53
2023-05-10T02:24:06.465Z,4.49
2023-05-10T02:26:36.346Z,4.45
2023-05-10T02:29:07.855Z,4.41
2023-05-10T02:31:39.923Z,4.36
2023-05-10T02:34:11.400Z,4.32
2023-05-10T02:36:40.838Z,4.27
2023-05-10T02:39:13.845Z,4.24
2023-05-10T02:41:44.500Z,4.24
2023-05-10T02:44:14.703Z,4.20
2023-05-10T02:46:43.667Z,4.16
2023-05-10T02:49:13.813Z,4.11
2023-05-10T02:51:58.862Z,4.09
2023-05-10T02:54:35.534Z,4.06
2023-05-10T02:57:07.041Z,4.09
2023-05-10T02:59:36.175Z,4.13
2023-05-10T03:02:06.319Z,4.16
2023-05-10T03:04:36.454Z,4.18
2023-05-10T03:07:05.195Z,4.24
2023-05-10T03:09:34.134Z,4.23
2023-05-10T03:12:14.176Z,4.16
2023-05-10T03:14:51.609Z,4.10
2023-05-10T03:17:26.216Z,4.03
2023-05-10T03:19:58.828Z,4.00
2023-05-10T03:22:33.660Z,3.96
2023-05-10T03:25:06.724Z,3.95
2023-05-10T03:27:39.035Z,3.93
2023-05-10T03:30:10.263Z,3.95
2023-05-10T03:32:39.000Z,4.05
2023-05-10T03:35:10.772Z,4.11
2023-05-10T03:37:40.173Z,4.16
2023-05-10T03:40:09.977Z,4.21
2023-05-10T03:42:40.929Z,4.30
2023-05-10T03:45:11.123Z,4.48
2023-05-10T03:47:39.976Z,4.58
2023-05-10T03:50:11.408Z,4.67
2023-05-10T03:52:40.302Z,4.77
2023-05-10T03:55:09.653Z,4.86
2023-05-10T03:57:38.440Z,4.96
2023-05-10T04:00:09.489Z,5.04
2023-05-10T04:02:44.749Z,5.18
2023-05-10T04:05:21.498Z,5.29
2023-05-10T04:07:50.939Z,5.44
2023-05-10T04:10:20.049Z,5.55
2023-05-10T04:12:51.191Z,5.66
2023-05-10T04:15:20.332Z,5.79
2023-05-10T04:17:49.808Z,5.89
2023-05-10T04:20:20.625Z,5.98
2023-05-10T04:22:49.156Z,6.07
2023-05-10T04:25:18.133Z,6.13
2023-05-10T04:27:47.531Z,6.23
2023-05-10T04:30:17.892Z,6.33
2023-05-10T04:32:46.978Z,6.41
2023-05-10T04:35:16.172Z,6.51
2023-05-10T04:37:46.047Z,6.61
2023-05-10T04:40:15.258Z,6.72
2023-05-10T04:42:44.297Z,6.82
2023-05-10T04:45:13.071Z,6.93
2023-05-10T04:47:41.701Z,7.07
2023-05-10T04:50:10.711Z,7.23
2023-05-10T04:52:39.760Z,7.38
2023-05-10T04:55:11.145Z,7.53
2023-05-10T04:57:39.699Z,7.69
2023-05-10T05:00:09.629Z,7.85
2023-05-10T05:02:38.263Z,8.00
2023-05-10T05:05:11.322Z,8.13
2023-05-10T05:07:40.651Z,8.25
2023-05-10T05:10:11.345Z,8.43
2023-05-10T05:12:40.154Z,8.57
2023-05-10T05:15:10.813Z,8.71
2023-05-10T05:17:39.619Z,8.84
2023-05-10T05:20:11.227Z,8.99
2023-05-10T05:22:40.370Z,9.16
2023-05-10T05:25:13.783Z,9.28
2023-05-10T05:27:42.400Z,9.43
2023-05-10T05:30:12.289Z,9.57
2023-05-10T05:32:41.342Z,9.77
2023-05-10T05:35:10.702Z,9.98
2023-05-10T05:37:39.335Z,10.17
2023-05-10T05:40:14.573Z,10.38
2023-05-10T05:42:43.710Z,10.60
2023-05-10T05:45:14.772Z,10.79
2023-05-10T05:47:43.929Z,11.01
2023-05-10T05:50:13.259Z,11.24
2023-05-10T05:52:41.698Z,11.50
2023-05-10T05:55:12.937Z,11.77
2023-05-10T05:57:41.883Z,12.07
2023-05-10T06:00:11.567Z,12.34
2023-05-10T06:02:44.125Z,12.59
2023-05-10T06:05:15.672Z,12.83
2023-05-10T06:07:44.655Z,13.06
2023-05-10T06:10:14.812Z,13.29
2023-05-10T06:12:44.251Z,13.48
2023-05-10T06:15:13.813Z,13.70
2023-05-10T06:17:45.476Z,13.90
2023-05-10T06:20:15.506Z,14.08
2023-05-10T06:22:45.940Z,14.26
2023-05-10T06:25:19.293Z,14.41
2023-05-10T06:27:51.736Z,14.55
2023-05-10T06:30:24.326Z,14.68
2023-05-10T06:32:53.146Z,14.84
2023-05-10T06:35:22.389Z,14.95
2023-05-10T06:37:52.080Z,15.13
2023-05-10T06:40:22.507Z,15.29
2023-05-10T06:42:52.789Z,15.41
2023-05-10T06:45:22.450Z,15.49
2023-05-10T06:47:51.426Z,15.64
2023-05-10T06:50:20.937Z,15.73
2023-05-10T06:52:51.109Z,15.91
2023-05-10T06:55:22.711Z,16.08
2023-05-10T06:57:52.035Z,16.23
2023-05-10T07:00:22.096Z,16.37
2023-05-10T07:02:50.866Z,16.57
2023-05-10T07:05:21.377Z,16.64
2023-05-10T07:07:50.573Z,16.80
2023-05-10T07:10:19.547Z,16.98
2023-05-10T07:12:50.041Z,17.19
2023-05-10T07:15:20.444Z,17.31
2023-05-10T07:17:49.333Z,17.49
2023-05-10T07:20:18.521Z,17.49
2023-05-10T07:22:47.335Z,17.46
2023-05-10T07:25:16.330Z,17.52
2023-05-10T07:27:46.176Z,17.64
2023-05-10T07:30:17.620Z,17.78
2023-05-10T07:32:46.681Z,17.99
2023-05-10T07:35:15.915Z,18.06
2023-05-10T07:37:45.112Z,18.12
2023-05-10T07:40:14.318Z,18.04
2023-05-10T07:42:43.254Z,18.24
2023-05-10T07:45:12.568Z,18.41
2023-05-10T07:47:42.868Z,18.34
2023-05-10T07:50:12.593Z,18.47
2023-05-10T07:52:41.648Z,18.71
2023-05-10T07:55:14.004Z,18.82
2023-05-10T07:57:42.957Z,18.91
2023-05-10T08:00:16.532Z,18.89
2023-05-10T08:02:47.209Z,19.07
2023-05-10T08:05:16.917Z,19.38
2023-05-10T08:07:46.312Z,19.44
2023-05-10T08:10:15.199Z,19.39
2023-05-10T08:12:44.139Z,19.56
2023-05-10T08:15:13.997Z,19.58
2023-05-10T08:17:42.812Z,19.76
2023-05-10T08:20:14.019Z,20.00
2023-05-10T08:22:43.219Z,20.13
2023-05-10T08:25:12.443Z,20.28
2023-05-10T08:27:41.477Z,19.98
2023-05-10T08:30:11.579Z,19.80
2023-05-10T08:32:40.970Z,20.19
2023-05-10T08:35:10.222Z,20.52
2023-05-10T08:37:40.544Z,20.75
2023-05-10T08:40:13.733Z,20.82
2023-05-10T08:42:51.188Z,20.59
2023-05-10T08:45:22.520Z,20.41
2023-05-10T08:47:57.979Z,20.33
2023-05-10T08:50:28.120Z,20.44
2023-05-10T08:53:01.556Z,20.70
2023-05-10T08:55:30.508Z,20.93
2023-05-10T08:57:59.272Z,21.23
2023-05-10T09:00:28.485Z,21.60
2023-05-10T09:02:57.623Z,21.66
2023-05-10T09:05:26.265Z,21.57
2023-05-10T09:07:55.598Z,21.86
2023-05-10T09:10:28.429Z,22.05
2023-05-10T09:12:59.605Z,22.09
2023-05-10T09:15:28.478Z,21.84
2023-05-10T09:17:58.255Z,22.07
2023-05-10T09:20:26.744Z,22.52
2023-05-10T09:22:55.671Z,22.72
2023-05-10T09:25:25.934Z,22.48
2023-05-10T09:27:55.305Z,22.36
2023-05-10T09:30:28.855Z,22.50
2023-05-10T09:33:00.152Z,22.77
2023-05-10T09:35:30.278Z,22.98
2023-05-10T09:38:01.796Z,22.54
2023-05-10T09:40:32.952Z,22.61
2023-05-10T09:43:04.184Z,22.75
2023-05-10T09:45:35.599Z,23.18
2023-05-10T09:48:07.762Z,23.27
2023-05-10T09:50:36.796Z,23.56
2023-05-10T09:53:06.161Z,23.68
2023-05-10T09:55:45.803Z,23.64
2023-05-10T09:58:16.071Z,23.75
2023-05-10T10:00:48.986Z,23.98
2023-05-10T10:03:19.345Z,24.02
2023-05-10T10:05:49.351Z,23.90
2023-05-10T10:08:18.563Z,23.83
2023-05-10T10:10:51.543Z,23.81
2023-05-10T10:13:20.697Z,23.67
2023-05-10T10:15:52.390Z,23.58
2023-05-10T10:18:28.090Z,23.99
2023-05-10T10:20:59.776Z,23.96
2023-05-10T10:23:29.810Z,24.28
2023-05-10T10:26:01.461Z,24.42
2023-05-10T10:28:50.764Z,24.43
2023-05-10T10:31:28.965Z,24.67
2023-05-10T10:34:03.781Z,24.67
2023-05-10T10:36:34.982Z,24.87
2023-05-10T10:39:05.443Z,24.83
2023-05-10T10:41:37.348Z,24.79
2023-05-10T10:44:25.753Z,24.60
2023-05-10T10:47:02.673Z,24.52
2023-05-10T10:49:35.179Z,24.84
2023-05-10T10:52:19.778Z,24.77
2023-05-10T10:55:00.063Z,24.76
2023-05-10T10:57:33.591Z,24.77
2023-05-10T11:00:26.739Z,24.56
2023-05-10T11:02:58.351Z,24.66
2023-05-10T11:05:43.110Z,24.86
2023-05-10T11:08:33.426Z,25.08
2023-05-10T11:11:11.447Z,25.00
2023-05-10T11:13:47.856Z,24.89
2023-05-10T11:16:21.331Z,25.19
2023-05-10T11:19:00.624Z,25.13
2023-05-10T11:21:29.462Z,25.19
2023-05-10T11:23:59.966Z,24.94
2023-05-10T11:26:33.427Z,25.18
2023-05-10T11:29:05.696Z,25.64
2023-05-10T11:31:34.852Z,25.75
2023-05-10T11:34:04.008Z,25.61
2023-05-10T11:36:38.761Z,25.44
2023-05-10T11:39:08.119Z,25.24
2023-05-10T11:41:37.551Z,25.16
2023-05-10T11:44:08.015Z,25.03
2023-05-10T11:46:40.035Z,25.07
2023-05-10T11:49:10.247Z,24.94
2023-05-10T11:51:40.538Z,25.03
2023-05-10T11:54:11.178Z,24.95
2023-05-10T11:56:40.805Z,25.17
2023-05-10T11:59:10.849Z,25.44
2023-05-10T12:01:40.127Z,25.71
2023-05-10T12:04:09.362Z,25.87
2023-05-10T12:06:42.888Z,26.01
2023-05-10T12:09:11.758Z,26.15
2023-05-10T12:11:44.352Z,26.06
2023-05-10T12:14:16.570Z,25.67
2023-05-10T12:16:47.687Z,25.53
2023-05-10T12:19:22.459Z,25.21
2023-05-10T12:21:51.840Z,25.09
2023-05-10T12:24:22.827Z,25.22
2023-05-10T12:26:53.292Z,25.27
2023-05-10T12:29:23.964Z,25.16
2023-05-10T12:31:57.646Z,25.22
2023-05-10T12:34:32.622Z,25.29
2023-05-10T12:37:01.976Z,25.39
2023-05-10T12:39:41.491Z,25.31
2023-05-10T12:42:10.568Z,25.12
2023-05-10T12:44:41.323Z,24.41
2023-05-10T12:47:10.179Z,24.35
2023-05-10T12:49:38.887Z,24.61
2023-05-10T12:52:07.792Z,24.96
2023-05-10T12:54:37.701Z,24.97
2023-05-10T12:57:06.682Z,24.89
2023-05-10T12:59:37.432Z,24.96
2023-05-10T13:02:09.882Z,24.76
2023-05-10T13:04:41.044Z,24.67
2023-05-10T13:07:10.261Z,24.68
2023-05-10T13:09:39.254Z,24.71
2023-05-10T13:12:10.008Z,24.70
2023-05-10T13:14:39.172Z,24.73
2023-05-10T13:17:10.562Z,24.70
2023-05-10T13:19:39.531Z,24.61
2023-05-10T13:22:08.658Z,24.63
2023-05-10T13:24:37.817Z,24.54
2023-05-10T13:27:07.080Z,24.42
2023-05-10T13:29:35.842Z,24.40
2023-05-10T13:32:05.016Z,24.24
2023-05-10T13:34:36.771Z,23.93
2023-05-10T13:37:05.704Z,23.89
2023-05-10T13:39:35.609Z,23.94
2023-05-10T13:42:04.346Z,24.03
2023-05-10T13:44:35.045Z,23.98
2023-05-10T13:47:04.224Z,24.01
2023-05-10T13:49:37.325Z,24.02
2023-05-10T13:52:07.995Z,24.12
2023-05-10T13:54:37.181Z,24.19
2023-05-10T13:57:07.997Z,24.09
2023-05-10T13:59:37.762Z,23.96
2023-05-10T14:02:07.240Z,23.88
2023-05-10T14:04:38.951Z,23.72
2023-05-10T14:07:08.376Z,23.41
2023-05-10T14:09:38.403Z,23.31
2023-05-10T14:12:07.916Z,23.35
2023-05-10T14:14:37.022Z,23.34
2023-05-10T14:17:06.648Z,23.17
2023-05-10T14:19:35.987Z,23.20
2023-05-10T14:22:06.708Z,23.05
2023-05-10T14:24:36.001Z,22.88
2023-05-10T14:27:05.068Z,22.78
2023-05-10T14:29:34.142Z,22.71
2023-05-10T14:32:04.000Z,22.68
2023-05-10T14:34:33.564Z,22.62
2023-05-10T14:37:02.644Z,22.64
2023-05-10T14:39:34.246Z,22.62
2023-05-10T14:42:03.828Z,22.63
2023-05-10T14:44:32.982Z,22.42
2023-05-10T14:47:02.892Z,22.18
2023-05-10T14:49:32.080Z,22.10
2023-05-10T14:54:48.235Z,21.84
2023-05-10T14:57:18.527Z,21.86
2023-05-10T14:59:47.944Z,21.79
2023-05-10T15:02:17.871Z,21.77
2023-05-10T15:04:47.970Z,21.65
2023-05-10T15:07:19.974Z,21.56
2023-05-10T15:09:51.679Z,21.45
2023-05-10T15:12:22.860Z,21.46
2023-05-10T15:14:52.139Z,21.36
2023-05-10T15:17:21.266Z,21.26
2023-05-10T15:19:50.529Z,21.14
2023-05-10T15:22:20.323Z,21.08
2023-05-10T15:24:50.989Z,20.98
2023-05-10T15:27:19.941Z,20.85
2023-05-10T15:29:49.250Z,20.81
2023-05-10T15:32:18.094Z,20.74
2023-05-10T15:34:47.318Z,20.63
2023-05-10T15:37:16.336Z,20.60
2023-05-10T15:39:46.778Z,20.52
2023-05-10T15:42:17.025Z,20.36
2023-05-10T15:44:51.372Z,20.34
2023-05-10T15:47:20.460Z,20.27
2023-05-10T15:49:49.584Z,20.17
2023-05-10T15:52:19.526Z,20.04
2023-05-10T15:54:48.643Z,19.85
2023-05-10T15:57:19.414Z,19.67
2023-05-10T15:59:48.503Z,19.53
2023-05-10T16:02:19.602Z,19.45
2023-05-10T16:04:48.875Z,19.38
2023-05-10T16:07:18.695Z,19.32
2023-05-10T16:09:49.661Z,19.18
2023-05-10T16:12:20.113Z,19.09
2023-05-10T16:14:49.444Z,19.02
2023-05-10T16:17:20.759Z,18.93
2023-05-10T16:19:49.781Z,18.79
2023-05-10T16:22:19.103Z,18.70
2023-05-10T16:24:49.006Z,18.65
2023-05-10T16:27:18.872Z,18.53
2023-05-10T16:29:50.281Z,18.43
2023-05-10T16:32:19.165Z,18.34
2023-05-10T16:34:48.447Z,18.21
2023-05-10T16:37:17.549Z,18.12
2023-05-10T16:39:47.079Z,18.03
2023-05-10T16:42:16.260Z,17.93
2023-05-10T16:44:45.858Z,17.85
2023-05-10T16:47:16.401Z,17.77
2023-05-10T16:49:47.110Z,17.68
2023-05-10T16:52:16.218Z,17.63
2023-05-10T16:54:45.972Z,17.56
2023-05-10T16:57:15.075Z,17.54
2023-05-10T16:59:44.243Z,17.41
2023-05-10T17:02:13.968Z,17.30
2023-05-10T17:04:44.728Z,17.19
2023-05-10T17:07:13.879Z,17.08
2023-05-10T17:09:45.503Z,17.00
2023-05-10T17:12:14.822Z,16.91
2023-05-10T17:14:45.011Z,16.88
2023-05-10T17:17:14.367Z,16.79
2023-05-10T17:19:46.794Z,16.72
2023-05-10T17:22:15.962Z,16.69
2023-05-10T17:24:45.268Z,16.64
2023-05-10T17:27:15.820Z,16.57
2023-05-10T17:29:45.085Z,16.46
2023-05-10T17:32:15.990Z,16.38
2023-05-10T17:34:47.163Z,16.32
2023-05-10T17:37:16.135Z,16.22
2023-05-10T17:39:45.418Z,16.13
2023-05-10T17:42:17.739Z,16.06
2023-05-10T17:44:47.064Z,16.03
2023-05-10T17:47:16.193Z,15.98
2023-05-10T17:49:47.129Z,15.91
2023-05-10T17:52:16.042Z,15.82
2023-05-10T17:54:45.223Z,15.69
2023-05-10T17:57:14.586Z,15.61
2023-05-10T17:59:44.231Z,15.56
2023-05-10T18:02:13.322Z,15.50
2023-05-10T18:04:42.797Z,15.40
2023-05-10T18:07:13.129Z,15.28
2023-05-10T18:09:43.454Z,15.21
2023-05-10T18:12:12.620Z,15.08
2023-05-10T18:14:42.371Z,14.98
2023-05-10T18:17:11.683Z,14.85
2023-05-10T18:19:41.238Z,14.77
2023-05-10T18:22:10.974Z,14.68
2023-05-10T18:24:41.464Z,14.58
2023-05-10T18:27:10.562Z,14.48
2023-05-10T18:29:39.648Z,14.36
2023-05-10T18:32:08.816Z,14.26
2023-05-10T18:34:38.220Z,14.18
2023-05-10T18:37:08.010Z,14.10
2023-05-10T18:39:38.138Z,14.03
2023-05-10T18:42:09.844Z,13.94
2023-05-10T18:44:39.159Z,13.86
2023-05-10T18:47:08.491Z,13.77
2023-05-10T18:49:37.383Z,13.70
2023-05-10T18:52:06.601Z,13.62
2023-05-10T18:54:35.617Z,13.56
2023-05-10T18:57:05.114Z,13.52
2023-05-10T18:59:35.610Z,13.41
2023-05-10T19:02:07.772Z,13.34
2023-05-10T19:04:37.393Z,13.27
2023-05-10T19:07:06.669Z,13.21
2023-05-10T19:09:35.792Z,13.18
2023-05-10T19:12:05.342Z,13.17
2023-05-10T19:14:36.407Z,13.15
2023-05-10T19:17:08.926Z,13.11
2023-05-10T19:19:38.996Z,13.10
2023-05-10T19:22:07.942Z,13.09
2023-05-10T19:24:37.593Z,13.03
2023-05-10T19:27:07.507Z,13.01
2023-05-10T19:29:38.294Z,12.94
2023-05-10T19:32:22.496Z,12.89
2023-05-10T19:34:53.340Z,12.82
2023-05-10T19:37:23.910Z,12.80
2023-05-10T19:39:54.364Z,12.75
2023-05-10T19:42:27.882Z,12.70
2023-05-10T19:44:58.613Z,12.67
2023-05-10T19:47:27.743Z,12.65
2023-05-10T19:49:56.548Z,12.60
2023-05-10T19:52:25.522Z,12.58
2023-05-10T19:54:54.664Z,12.53
2023-05-10T19:57:23.757Z,12.50
2023-05-10T19:59:52.587Z,12.48
2023-05-10T20:02:23.632Z,12.43
2023-05-10T20:04:52.396Z,12.41
2023-05-10T20:07:21.573Z,12.37
2023-05-10T20:09:50.297Z,12.35
2023-05-10T20:12:19.618Z,12.35
2023-05-10T20:14:50.846Z,12.31
2023-05-10T20:17:24.197Z,12.27
2023-05-10T20:19:53.285Z,12.18
2023-05-10T20:22:22.857Z,12.11
2023-05-10T20:24:53.186Z,12.10
2023-05-10T20:27:23.769Z,12.09
2023-05-10T20:29:53.427Z,12.06
2023-05-10T20:32:26.513Z,12.04
2023-05-10T20:34:56.166Z,12.02
2023-05-10T20:37:25.700Z,11.97
2023-05-10T20:39:54.558Z,11.93
2023-05-10T20:42:23.895Z,11.88
2023-05-10T20:44:52.934Z,11.86
2023-05-10T20:47:27.027Z,11.82
2023-05-10T20:49:58.457Z,11.80
2023-05-10T20:52:27.251Z,11.77
2023-05-10T20:54:56.019Z,11.75
2023-05-10T20:57:24.969Z,11.72
2023-05-10T20:59:54.744Z,11.66
2023-05-10T21:02:26.238Z,11.64
2023-05-10T21:04:57.968Z,11.63
2023-05-10T21:07:29.013Z,11.63
2023-05-10T21:09:58.688Z,11.63
2023-05-10T21:12:27.828Z,11.61
2023-05-10T21:14:57.068Z,11.58
2023-05-10T21:17:27.759Z,11.58
2023-05-10T21:19:56.594Z,11.56
2023-05-10T21:22:25.510Z,11.51
2023-05-10T21:24:58.648Z,11.48
2023-05-10T21:27:27.490Z,11.46
2023-05-10T21:29:57.084Z,11.44
2023-05-10T21:32:26.888Z,11.42
2023-05-10T21:34:56.379Z,11.38
2023-05-10T21:37:27.240Z,11.36
2023-05-10T21:39:57.694Z,11.31
2023-05-10T21:42:27.626Z,11.21
2023-05-10T21:44:57.112Z,11.20
2023-05-10T21:47:26.622Z,11.16
2023-05-10T21:49:56.329Z,11.10
2023-05-10T21:52:25.315Z,11.07
2023-05-10T21:54:54.148Z,11.01
2023-05-10T21:57:25.492Z,10.98
2023-05-10T21:59:54.734Z,10.94
2023-05-10T22:02:23.884Z,10.91
2023-05-10T22:04:52.775Z,10.89
2023-05-10T22:07:22.084Z,10.87
2023-05-10T22:09:50.931Z,10.85
2023-05-10T22:12:19.906Z,10.80
2023-05-10T22:14:56.542Z,10.77
2023-05-10T22:17:36.295Z,10.70
2023-05-10T22:20:05.705Z,10.66
2023-05-10T22:22:34.373Z,10.63
2023-05-10T22:25:03.243Z,10.62
2023-05-10T22:27:32.496Z,10.62
2023-05-10T22:30:03.789Z,10.59
2023-05-10T22:32:34.515Z,10.56
2023-05-10T22:35:06.827Z,10.54
2023-05-10T22:37:35.856Z,10.53
2023-05-10T22:40:10.554Z,10.54
2023-05-10T22:42:40.255Z,10.52
2023-05-10T22:45:12.459Z,10.52
2023-05-10T22:47:40.989Z,10.51
2023-05-10T22:50:10.524Z,10.43
2023-05-10T22:52:40.140Z,10.37
2023-05-10T22:55:11.394Z,10.39
2023-05-10T22:57:40.288Z,10.38
2023-05-10T23:00:12.252Z,10.35
2023-05-10T23:02:41.234Z,10.32
2023-05-10T23:05:11.485Z,10.25
2023-05-10T23:07:40.510Z,10.21
2023-05-10T23:10:10.727Z,10.17
2023-05-10T23:12:39.818Z,10.11
2023-05-10T23:15:11.293Z,10.03
2023-05-10T23:17:40.156Z,10.01
2023-05-10T23:20:10.179Z,9.92
2023-05-10T23:22:40.308Z,9.88
2023-05-10T23:25:11.906Z,9.83
2023-05-10T23:27:40.725Z,9.79
2023-05-10T23:30:12.254Z,9.73
2023-05-10T23:32:41.348Z,9.70
2023-05-10T23:35:11.042Z,9.65
2023-05-10T23:37:41.183Z,9.58
2023-05-10T23:40:11.579Z,9.53
2023-05-10T23:42:43.524Z,9.48
2023-05-10T23:45:13.699Z,9.42
2023-05-10T23:47:42.395Z,9.37
2023-05-10T23:50:11.897Z,9.32
2023-05-10T23:52:40.911Z,9.26
2023-05-10T23:55:10.886Z,9.13
2023-05-10T23:57:43.085Z,9.01
